»·PEaware :: N431JP KVCV-KPOC

N431JP :: KVCV-KPOC

FLIGHT INFORMATION

Flight Status: Arrived
Operator: Privately registered:
United States
More flights under this callsign
Pilot: Marek P. (484)
Aircraft: Diamond DA-40
(DA40)
More flights by this aircraft type
Origin: KVCV Socal Logistics
United States
Destination: KPOC Brackett
United States
More flights between these airports :: More routes between these airports
Route: APLES V442 RRIZE
File this flight plan on PilotEdge
Remarks:
Altitude:
(Current/Filed)
9,000ft
Speed:
(Current/Filed)
120kts
Departed: 24-Sep-20 02:03 PM
Arrived: 24-Sep-20 02:44 PM
Distance/Time
Traveled:
36nm/0:40
Distance/Time
To Go:
Arrived

Flight Plot

Page will automatically refresh every two minutes.

Flight plan parsing failed; only flown route is shown


Map Options




Map Legend


Flown Route
Filed Route
Departure Airport
Arrival Airport
Navaid (VOR, NDB)
Fix

Horizontal Profiles

Position Reports

Time Latitude Longitude Heading Altitude Ground
Speed
24-Sep-20 13:44 34.587683 -117.377606 225 2870ft 0kts
24-Sep-20 13:45 34.587683 -117.377606 225 2870ft 0kts
24-Sep-20 13:46 34.587683 -117.377606 225 2870ft 0kts
24-Sep-20 13:47 34.587683 -117.377606 225 2870ft 0kts
24-Sep-20 13:48 34.587683 -117.377606 225 2870ft 0kts
24-Sep-20 13:49 34.587683 -117.377606 225 2870ft 0kts
24-Sep-20 13:51 34.587683 -117.377606 225 2870ft 0kts
24-Sep-20 13:52 34.587683 -117.377606 225 2870ft 0kts
24-Sep-20 13:53 34.587683 -117.377606 225 2870ft 0kts
24-Sep-20 13:54 34.587683 -117.377606 225 2870ft 0kts
24-Sep-20 13:55 34.587683 -117.377606 225 2870ft 0kts
24-Sep-20 13:56 34.587683 -117.377606 225 2870ft 0kts
24-Sep-20 13:57 34.587683 -117.377606 225 2870ft 0kts
24-Sep-20 13:58 34.589110 -117.376805 38 2868ft 12kts
24-Sep-20 13:59 34.592587 -117.372462 47 2861ft 27kts
24-Sep-20 14:00 34.595734 -117.367436 10 2853ft 26kts
24-Sep-20 14:01 34.598707 -117.366741 6 2849ft 0kts
24-Sep-20 14:02 34.599365 -117.366732 342 2849ft 16kts
24-Sep-20 14:03 34.589570 -117.379463 223 2987ft 88kts
24-Sep-20 14:04 34.580354 -117.409302 262 3529ft 105kts
24-Sep-20 14:05 34.576610 -117.444582 262 4228ft 105kts
24-Sep-20 14:06 34.572865 -117.479975 262 4929ft 106kts
24-Sep-20 14:07 34.569103 -117.515461 262 5629ft 106kts
24-Sep-20 14:07 34.565981 -117.545105 262 6212ft 106kts
24-Sep-20 14:09 34.561578 -117.586925 262 7031ft 107kts
24-Sep-20 14:10 34.557836 -117.622924 262 7731ft 107kts
24-Sep-20 14:10 34.554702 -117.653027 262 8315ft 108kts
24-Sep-20 14:11 34.550905 -117.689446 262 8974ft 112kts
24-Sep-20 14:12 34.524076 -117.692864 135 9004ft 140kts
24-Sep-20 14:13 34.497116 -117.657820 132 9000ft 142kts
24-Sep-20 14:14 34.470188 -117.622420 132 9000ft 142kts
24-Sep-20 14:15 34.444069 -117.588078 132 8999ft 136kts
24-Sep-20 14:16 34.418357 -117.554413 132 8999ft 136kts
24-Sep-20 14:17 34.392655 -117.520727 132 8999ft 136kts
24-Sep-20 14:18 34.366939 -117.486998 132 8999ft 136kts
24-Sep-20 14:19 34.341333 -117.453434 132 9016ft 135kts
24-Sep-20 14:20 34.315623 -117.419772 132 9018ft 136kts
24-Sep-20 14:21 34.289906 -117.386084 132 9017ft 135kts
24-Sep-20 14:22 34.264339 -117.352574 132 9019ft 136kts
24-Sep-20 14:23 34.238714 -117.319047 132 9018ft 136kts
24-Sep-20 14:24 34.212748 -117.285755 146 9010ft 136kts
24-Sep-20 14:25 34.174334 -117.287670 192 8551ft 138kts
24-Sep-20 14:26 34.137683 -117.297567 192 7924ft 136kts
24-Sep-20 14:27 34.100721 -117.307534 192 7121ft 134kts
24-Sep-20 14:28 34.064742 -117.317246 192 6316ft 131kts
24-Sep-20 14:29 34.031478 -117.326187 192 5928ft 115kts
24-Sep-20 14:30 34.007722 -117.347236 280 5240ft 124kts
24-Sep-20 14:31 34.024946 -117.383350 303 4544ft 124kts
24-Sep-20 14:32 34.043738 -117.417936 303 4022ft 120kts
24-Sep-20 14:33 34.061586 -117.450690 302 4017ft 115kts
24-Sep-20 14:34 34.077009 -117.484092 278 4017ft 114kts
24-Sep-20 14:35 34.078684 -117.522463 274 4019ft 114kts
24-Sep-20 14:36 34.080686 -117.561421 273 3550ft 114kts
24-Sep-20 14:37 34.082522 -117.599286 273 3220ft 110kts
24-Sep-20 14:38 34.084286 -117.635909 273 3217ft 108kts
24-Sep-20 14:39 34.086022 -117.672145 273 3218ft 108kts
24-Sep-20 14:40 34.087850 -117.710440 273 2468ft 114kts
24-Sep-20 14:41 34.089475 -117.744663 273 1675ft 92kts
24-Sep-20 14:42 34.090811 -117.771202 271 1152ft 78kts
24-Sep-20 14:43 34.090893 -117.782362 212 993ft 0kts
24-Sep-20 14:44 34.090192 -117.782571 22 994ft 0kts

Navigation Log

Ident Type
Flight plan parsing failed, navigation log unavailable